createdAt,value
2022-07-27T00:01:28.188Z,17.50
2022-07-27T00:03:57.700Z,17.80
2022-07-27T00:06:27.194Z,18.42
2022-07-27T00:08:58.443Z,18.30
2022-07-27T00:11:27.737Z,17.23
2022-07-27T00:13:57.037Z,18.55
2022-07-27T00:16:26.768Z,18.15
2022-07-27T00:18:55.910Z,18.80
2022-07-27T00:21:26.216Z,18.75
2022-07-27T00:23:57.549Z,18.52
2022-07-27T00:26:26.829Z,18.60
2022-07-27T00:28:55.871Z,19.20
2022-07-27T00:31:25.239Z,18.88
2022-07-27T00:33:54.496Z,19.13
2022-07-27T00:36:23.765Z,19.02
2022-07-27T00:38:55.893Z,18.83
2022-07-27T00:41:27.096Z,19.70
2022-07-27T00:43:58.804Z,19.40
2022-07-27T00:46:29.735Z,20.23
2022-07-27T00:48:58.939Z,20.60
2022-07-27T00:51:28.250Z,19.50
2022-07-27T00:53:58.054Z,21.45
2022-07-27T00:56:30.189Z,21.98
2022-07-27T00:59:00.033Z,21.40
2022-07-27T01:01:29.214Z,21.05
2022-07-27T01:03:58.875Z,21.90
2022-07-27T01:09:16.272Z,20.08
2022-07-27T01:11:48.098Z,21.58
2022-07-27T01:14:20.267Z,21.58
2022-07-27T01:16:57.851Z,22.58
2022-07-27T01:19:28.250Z,22.40
2022-07-27T01:21:59.397Z,22.40
2022-07-27T01:24:28.664Z,22.63
2022-07-27T01:26:58.058Z,22.88
2022-07-27T01:29:28.116Z,22.63
2022-07-27T01:31:57.431Z,22.02
2022-07-27T01:34:26.958Z,22.05
2022-07-27T01:36:56.129Z,22.38
2022-07-27T01:39:29.677Z,22.25
2022-07-27T01:41:59.094Z,23.13
2022-07-27T01:44:28.975Z,22.73
2022-07-27T01:46:58.297Z,22.38
2022-07-27T01:49:27.704Z,22.20
2022-07-27T01:51:57.115Z,23.27
2022-07-27T01:54:28.710Z,24.17
2022-07-27T01:56:58.164Z,23.52
2022-07-27T01:59:27.296Z,23.10
2022-07-27T02:01:56.810Z,22.67
2022-07-27T02:04:26.015Z,23.15
2022-07-27T02:06:56.357Z,22.90
2022-07-27T02:09:27.494Z,24.60
2022-07-27T02:12:09.694Z,23.95
2022-07-27T02:14:39.107Z,24.15
2022-07-27T02:17:08.134Z,24.60
2022-07-27T02:19:39.676Z,23.52
2022-07-27T02:22:08.785Z,23.25
2022-07-27T02:24:40.160Z,24.65
2022-07-27T02:27:09.932Z,24.13
2022-07-27T02:29:39.054Z,23.58
2022-07-27T02:32:08.719Z,24.08
2022-07-27T02:34:39.206Z,23.98
2022-07-27T02:37:10.359Z,24.47
2022-07-27T02:39:41.898Z,23.45
2022-07-27T02:42:12.627Z,23.50
2022-07-27T02:44:42.930Z,24.55
2022-07-27T02:47:12.127Z,24.25
2022-07-27T02:49:41.687Z,24.27
2022-07-27T02:52:11.032Z,24.40
2022-07-27T02:54:42.269Z,24.40
2022-07-27T02:57:11.520Z,23.42
2022-07-27T02:59:40.615Z,23.73
2022-07-27T03:02:09.861Z,24.88
2022-07-27T03:04:39.053Z,24.38
2022-07-27T03:07:08.767Z,24.75
2022-07-27T03:09:38.067Z,24.30
2022-07-27T03:12:10.367Z,25.25
2022-07-27T03:14:39.707Z,26.10
2022-07-27T03:17:08.946Z,25.92
2022-07-27T03:19:38.708Z,26.75
2022-07-27T03:22:09.400Z,24.65
2022-07-27T03:24:38.531Z,26.58
2022-07-27T03:27:09.838Z,26.27
2022-07-27T03:29:39.226Z,29.67
2022-07-27T03:32:08.966Z,28.00
2022-07-27T03:34:38.204Z,30.15
2022-07-27T03:37:09.903Z,33.22
2022-07-27T03:39:39.029Z,33.70
2022-07-27T03:42:12.163Z,37.58
2022-07-27T03:44:41.423Z,38.83
2022-07-27T03:47:10.633Z,39.75
2022-07-27T03:49:39.947Z,37.15
2022-07-27T03:52:15.789Z,38.08
2022-07-27T03:54:47.176Z,36.80
2022-07-27T03:57:21.292Z,34.47
2022-07-27T03:59:51.731Z,35.85
2022-07-27T04:02:20.963Z,33.85
2022-07-27T04:04:50.376Z,34.47
2022-07-27T04:07:20.505Z,32.88
2022-07-27T04:09:50.725Z,31.00
2022-07-27T04:12:21.947Z,31.35
2022-07-27T04:14:51.242Z,29.38
2022-07-27T04:17:55.151Z,30.02
2022-07-27T04:20:11.346Z,27.38
2022-07-27T04:22:40.764Z,24.33
2022-07-27T04:25:10.777Z,22.85
2022-07-27T04:27:42.278Z,20.98
2022-07-27T04:32:41.086Z,19.83
2022-07-27T04:35:11.639Z,20.33
2022-07-27T04:37:40.848Z,20.87
2022-07-27T04:40:27.361Z,19.60
2022-07-27T04:43:02.487Z,20.27
2022-07-27T04:45:32.276Z,20.38
2022-07-27T04:48:01.979Z,21.40
2022-07-27T04:50:31.149Z,20.90
2022-07-27T04:53:01.121Z,20.90
2022-07-27T04:55:30.634Z,20.20
2022-07-27T04:58:01.689Z,19.55
2022-07-27T05:00:31.133Z,20.75
2022-07-27T05:03:01.238Z,21.08
2022-07-27T05:05:30.662Z,19.60
2022-07-27T05:08:01.336Z,21.30
2022-07-27T05:10:30.774Z,21.55
2022-07-27T05:13:02.045Z,21.60
2022-07-27T05:15:55.151Z,22.05
2022-07-27T05:18:25.714Z,21.50
2022-07-27T05:20:55.186Z,20.70
2022-07-27T05:23:24.618Z,21.15
2022-07-27T05:25:53.714Z,21.45
2022-07-27T05:28:26.114Z,21.02
2022-07-27T05:30:56.228Z,20.67
2022-07-27T05:33:25.390Z,21.20
2022-07-27T05:35:54.592Z,21.60
2022-07-27T05:38:24.028Z,21.52
2022-07-27T05:40:54.594Z,21.40
2022-07-27T05:43:25.597Z,21.08
2022-07-27T05:45:56.768Z,20.55
2022-07-27T05:48:26.035Z,19.85
2022-07-27T05:50:55.286Z,21.48
2022-07-27T05:53:24.863Z,19.75
2022-07-27T05:55:58.102Z,21.30
2022-07-27T05:58:31.230Z,20.35
2022-07-27T06:01:00.461Z,20.70
2022-07-27T06:03:29.776Z,19.50
2022-07-27T06:06:11.996Z,21.30
2022-07-27T06:08:41.654Z,20.08
2022-07-27T06:11:10.957Z,20.10
2022-07-27T06:13:42.638Z,20.95
2022-07-27T06:16:12.532Z,20.33
2022-07-27T06:18:41.719Z,20.70
2022-07-27T06:21:11.032Z,21.63
2022-07-27T06:23:40.386Z,21.08
2022-07-27T06:26:09.548Z,20.60
2022-07-27T06:28:42.246Z,20.80
2022-07-27T06:31:11.830Z,20.52
2022-07-27T06:33:41.649Z,20.75
2022-07-27T06:36:13.745Z,20.83
2022-07-27T06:38:44.006Z,21.77
2022-07-27T06:41:13.159Z,20.50
2022-07-27T06:43:44.288Z,19.85
2022-07-27T06:48:43.675Z,19.50
2022-07-27T06:51:13.265Z,20.20
2022-07-27T06:53:42.463Z,19.95
2022-07-27T06:56:12.105Z,19.00
2022-07-27T06:58:41.262Z,19.65
2022-07-27T07:01:12.456Z,20.13
2022-07-27T07:06:10.912Z,20.33
2022-07-27T07:08:40.086Z,19.63
2022-07-27T07:11:10.998Z,19.88
2022-07-27T07:13:44.768Z,20.35
2022-07-27T07:16:17.091Z,18.75
2022-07-27T07:18:51.797Z,18.17
2022-07-27T07:21:21.699Z,18.40
2022-07-27T07:23:51.303Z,17.30
2022-07-27T07:26:20.596Z,17.70
2022-07-27T07:28:49.756Z,18.27
2022-07-27T07:31:21.114Z,17.88
2022-07-27T07:33:50.397Z,18.48
2022-07-27T07:36:19.577Z,17.60
2022-07-27T07:38:48.751Z,18.40
2022-07-27T07:41:17.936Z,17.77
2022-07-27T07:43:47.307Z,18.80
2022-07-27T07:46:16.518Z,17.95
2022-07-27T07:48:47.909Z,17.98
2022-07-27T07:51:17.708Z,18.75
2022-07-27T07:53:46.898Z,18.27
2022-07-27T07:56:16.534Z,18.88
2022-07-27T07:58:45.748Z,18.95
2022-07-27T08:01:14.947Z,18.23
2022-07-27T08:03:48.717Z,19.45
2022-07-27T08:06:21.959Z,18.90
2022-07-27T08:11:20.334Z,18.42
2022-07-27T08:13:49.638Z,18.13
2022-07-27T08:16:19.017Z,17.60
2022-07-27T08:18:48.190Z,17.67
2022-07-27T08:21:17.354Z,18.73
2022-07-27T08:23:48.615Z,16.25
2022-07-27T08:28:46.761Z,15.63
2022-07-27T08:31:18.880Z,16.13
2022-07-27T08:33:53.488Z,15.68
2022-07-27T08:36:22.698Z,15.77
2022-07-27T08:38:54.210Z,15.88
2022-07-27T08:41:27.024Z,16.45
2022-07-27T08:43:58.249Z,17.30
2022-07-27T08:48:58.102Z,17.13
2022-07-27T08:51:27.511Z,18.02
2022-07-27T08:53:59.376Z,17.58
2022-07-27T08:56:29.006Z,18.70
2022-07-27T08:58:58.385Z,18.45
2022-07-27T09:01:27.815Z,18.70
2022-07-27T09:03:56.969Z,18.83
2022-07-27T09:06:45.269Z,18.40
2022-07-27T09:09:24.403Z,18.38
2022-07-27T09:12:09.520Z,18.38
2022-07-27T09:14:40.541Z,17.30
2022-07-27T09:20:18.644Z,18.23
2022-07-27T09:22:50.595Z,19.80
2022-07-27T09:25:45.290Z,20.25
2022-07-27T09:28:14.462Z,20.45
2022-07-27T09:30:44.492Z,20.58
2022-07-27T09:33:17.286Z,19.65
2022-07-27T09:35:47.999Z,20.60
2022-07-27T09:38:21.079Z,20.58
2022-07-27T09:41:01.311Z,19.77
2022-07-27T09:44:28.771Z,17.73
2022-07-27T09:46:31.809Z,17.00
2022-07-27T09:49:01.975Z,16.92
2022-07-27T09:51:58.770Z,15.40
2022-07-27T09:54:21.527Z,15.90
2022-07-27T09:57:02.203Z,15.82
2022-07-27T09:59:31.960Z,17.00
2022-07-27T10:02:01.214Z,15.68
2022-07-27T10:04:30.679Z,16.67
2022-07-27T10:07:04.453Z,17.63
2022-07-27T10:09:35.700Z,17.42
2022-07-27T10:12:07.627Z,17.27
2022-07-27T10:14:39.357Z,17.08
2022-07-27T10:17:10.363Z,16.80
2022-07-27T10:19:47.159Z,17.48
2022-07-27T10:22:16.585Z,16.83
2022-07-27T10:24:51.185Z,16.75
2022-07-27T10:27:29.840Z,16.40
2022-07-27T10:29:59.968Z,16.77
2022-07-27T10:32:32.347Z,14.70
2022-07-27T10:35:02.693Z,15.07
2022-07-27T10:37:35.091Z,15.90
2022-07-27T10:40:21.090Z,16.45
2022-07-27T10:42:54.661Z,16.85
2022-07-27T10:45:24.590Z,17.45
2022-07-27T10:47:54.631Z,16.30
2022-07-27T10:50:32.956Z,18.17
2022-07-27T10:53:11.260Z,18.45
2022-07-27T10:55:51.135Z,17.85
2022-07-27T10:58:49.854Z,18.00
2022-07-27T11:01:21.077Z,17.75
2022-07-27T11:03:55.560Z,17.90
2022-07-27T11:06:55.398Z,18.02
2022-07-27T11:12:14.677Z,16.80
2022-07-27T11:20:13.296Z,18.05
2022-07-27T11:23:26.642Z,18.13
2022-07-27T11:25:33.164Z,18.60
2022-07-27T11:28:08.930Z,18.25
2022-07-27T11:30:40.682Z,17.92
2022-07-27T11:33:09.972Z,18.15
2022-07-27T11:35:39.164Z,17.55
2022-07-27T11:38:08.557Z,17.20
2022-07-27T11:40:56.932Z,17.15
2022-07-27T11:43:39.196Z,15.90
2022-07-27T11:46:22.433Z,16.30
2022-07-27T11:49:13.087Z,16.17
2022-07-27T11:51:45.172Z,17.33
2022-07-27T11:54:19.900Z,17.63
2022-07-27T11:56:51.335Z,17.42
2022-07-27T11:59:21.780Z,17.40
2022-07-27T12:01:55.143Z,17.15
2022-07-27T12:04:27.868Z,16.48
2022-07-27T12:07:01.447Z,16.38
2022-07-27T12:09:38.030Z,15.95
2022-07-27T12:12:14.089Z,16.02
2022-07-27T12:14:45.538Z,17.17
2022-07-27T12:17:29.456Z,16.02
2022-07-27T12:20:06.086Z,16.80
2022-07-27T12:22:39.206Z,15.40
2022-07-27T12:25:16.847Z,15.88
2022-07-27T12:27:57.169Z,15.55
2022-07-27T12:30:34.934Z,15.15
2022-07-27T12:33:08.841Z,14.50
2022-07-27T12:35:46.520Z,14.68
2022-07-27T12:38:16.414Z,14.32
2022-07-27T12:40:47.474Z,14.00
2022-07-27T12:43:19.246Z,13.55
2022-07-27T12:45:49.798Z,14.02
2022-07-27T12:48:24.074Z,13.98
2022-07-27T12:58:00.800Z,15.20
2022-07-27T13:00:33.934Z,15.85
2022-07-27T13:03:04.430Z,15.80
2022-07-27T13:05:35.197Z,15.67
2022-07-27T13:08:06.313Z,15.27
2022-07-27T13:10:36.074Z,15.15
2022-07-27T13:13:08.342Z,15.82
2022-07-27T13:15:38.111Z,15.20
2022-07-27T13:18:08.247Z,16.42
2022-07-27T13:20:39.512Z,16.40
2022-07-27T13:23:09.569Z,16.70
2022-07-27T13:25:43.267Z,16.20
2022-07-27T13:28:15.241Z,16.33
2022-07-27T13:30:44.763Z,16.40
2022-07-27T13:33:13.876Z,16.02
2022-07-27T13:35:43.172Z,16.98
2022-07-27T13:38:16.448Z,16.45
2022-07-27T13:40:47.656Z,16.70
2022-07-27T13:43:19.200Z,16.92
2022-07-27T13:45:49.038Z,17.10
2022-07-27T13:48:18.183Z,16.88
2022-07-27T13:50:47.444Z,16.98
2022-07-27T13:53:17.247Z,16.40
2022-07-27T13:55:54.063Z,16.35
2022-07-27T13:58:25.384Z,15.75
2022-07-27T14:00:54.625Z,16.95
2022-07-27T14:03:23.820Z,17.98
2022-07-27T14:08:25.005Z,16.27
2022-07-27T14:10:54.431Z,16.03
2022-07-27T14:13:26.203Z,16.13
2022-07-27T14:15:55.954Z,16.48
2022-07-27T14:18:26.390Z,16.27
2022-07-27T14:20:56.505Z,15.52
2022-07-27T14:23:27.105Z,15.10
2022-07-27T14:25:58.132Z,15.27
2022-07-27T14:31:00.960Z,14.20
2022-07-27T14:33:36.478Z,14.63
2022-07-27T14:36:08.957Z,15.20
2022-07-27T14:38:41.904Z,15.10
2022-07-27T14:41:11.154Z,16.02
2022-07-27T14:43:42.437Z,16.73
2022-07-27T14:46:11.671Z,16.17
2022-07-27T14:51:30.675Z,16.42
2022-07-27T14:54:33.542Z,17.35
2022-07-27T14:57:05.621Z,17.10
2022-07-27T14:59:37.126Z,17.65
2022-07-27T15:02:06.810Z,17.63
2022-07-27T15:04:36.099Z,18.00
2022-07-27T15:07:05.574Z,17.55
2022-07-27T15:09:34.843Z,18.38
2022-07-27T15:12:04.298Z,18.45
2022-07-27T15:14:38.835Z,18.63
2022-07-27T15:17:09.976Z,18.33
2022-07-27T15:22:08.465Z,17.27
2022-07-27T15:24:38.526Z,17.60
2022-07-27T15:27:07.893Z,18.52
2022-07-27T15:29:37.274Z,17.45
2022-07-27T15:32:08.916Z,16.98
2022-07-27T15:34:40.463Z,17.30
2022-07-27T15:37:09.712Z,17.35
2022-07-27T15:39:40.226Z,17.33
2022-07-27T15:42:10.657Z,16.83
2022-07-27T15:44:40.990Z,16.87
2022-07-27T15:47:10.562Z,16.90
2022-07-27T15:49:42.367Z,17.02
2022-07-27T15:52:12.091Z,16.88
2022-07-27T15:54:45.442Z,17.20
2022-07-27T15:57:15.828Z,17.13
2022-07-27T15:59:44.937Z,17.00
2022-07-27T16:02:14.780Z,16.52
2022-07-27T16:04:45.932Z,16.95
2022-07-27T16:07:15.285Z,17.23
2022-07-27T16:09:44.700Z,17.60
2022-07-27T16:12:15.970Z,15.70
2022-07-27T16:14:45.779Z,15.60
2022-07-27T16:17:15.216Z,14.38
2022-07-27T16:19:47.149Z,14.27
2022-07-27T16:22:16.371Z,13.73
2022-07-27T16:24:45.546Z,13.60
2022-07-27T16:27:14.787Z,13.30
2022-07-27T16:29:43.994Z,14.32
2022-07-27T16:32:13.959Z,13.98
2022-07-27T16:34:43.152Z,14.27
2022-07-27T16:37:14.405Z,13.27
2022-07-27T16:42:13.384Z,12.75
2022-07-27T16:44:42.816Z,13.10
2022-07-27T16:47:12.309Z,12.95
2022-07-27T16:49:41.569Z,14.15
2022-07-27T16:52:10.912Z,13.52
2022-07-27T16:54:42.479Z,13.95
2022-07-27T16:57:11.664Z,13.52
2022-07-27T16:59:41.263Z,15.52
2022-07-27T17:02:10.774Z,14.45
2022-07-27T17:04:40.123Z,15.05
2022-07-27T17:07:12.635Z,16.70
2022-07-27T17:09:44.238Z,15.88
2022-07-27T17:14:47.197Z,15.57
2022-07-27T17:17:17.190Z,15.10
2022-07-27T17:19:46.330Z,15.30
2022-07-27T17:22:15.970Z,15.63
2022-07-27T17:24:47.202Z,15.68
2022-07-27T17:29:45.277Z,16.20
2022-07-27T17:32:15.755Z,15.05
2022-07-27T17:34:45.256Z,15.87
2022-07-27T17:37:14.838Z,15.80
2022-07-27T17:39:44.465Z,16.55
2022-07-27T17:42:15.801Z,16.15
2022-07-27T17:44:45.158Z,15.80
2022-07-27T17:47:14.278Z,17.70
2022-07-27T17:49:43.446Z,16.98
2022-07-27T17:52:12.634Z,18.35
2022-07-27T17:54:41.899Z,18.80
2022-07-27T17:57:11.071Z,17.67
2022-07-27T17:59:42.788Z,19.65
2022-07-27T18:02:12.327Z,17.88
2022-07-27T18:04:41.708Z,18.42
2022-07-27T18:07:11.084Z,17.75
2022-07-27T18:09:42.313Z,17.70
2022-07-27T18:15:03.428Z,19.10
2022-07-27T18:17:34.328Z,18.70
2022-07-27T18:20:03.513Z,18.95
2022-07-27T18:22:38.505Z,17.20
2022-07-27T18:25:10.138Z,19.85
2022-07-27T18:27:42.562Z,17.67
2022-07-27T18:32:44.850Z,16.65
2022-07-27T18:35:15.732Z,17.30
2022-07-27T18:37:45.042Z,17.73
2022-07-27T18:40:15.485Z,17.90
2022-07-27T18:42:46.046Z,17.77
2022-07-27T18:45:19.548Z,18.48
2022-07-27T18:47:49.563Z,19.10
2022-07-27T18:50:19.055Z,18.83
2022-07-27T18:52:48.225Z,19.73
2022-07-27T18:55:20.878Z,21.30
2022-07-27T18:57:52.107Z,21.05
2022-07-27T19:00:24.633Z,20.98
2022-07-27T19:02:58.105Z,20.92
2022-07-27T19:05:40.427Z,20.35
2022-07-27T19:08:11.279Z,20.65
2022-07-27T19:10:43.129Z,19.65
2022-07-27T19:13:12.531Z,19.17
2022-07-27T19:15:44.582Z,20.45
2022-07-27T19:18:14.458Z,19.67
2022-07-27T19:20:43.598Z,19.40
2022-07-27T19:23:12.867Z,18.80
2022-07-27T19:25:43.103Z,18.10
2022-07-27T19:28:12.400Z,19.30
2022-07-27T19:30:43.603Z,19.10
2022-07-27T19:35:41.694Z,19.17
2022-07-27T19:38:11.547Z,19.48
2022-07-27T19:40:44.628Z,19.75
2022-07-27T19:43:14.799Z,18.20
2022-07-27T19:45:46.097Z,16.70
2022-07-27T19:48:15.353Z,15.45
2022-07-27T19:50:45.298Z,15.57
2022-07-27T19:53:14.639Z,15.95
2022-07-27T19:55:44.116Z,16.30
2022-07-27T19:58:13.462Z,15.02
2022-07-27T20:00:42.790Z,15.93
2022-07-27T20:03:15.668Z,16.23
2022-07-27T20:05:44.999Z,15.85
2022-07-27T20:08:14.614Z,15.88
2022-07-27T20:10:44.467Z,15.52
2022-07-27T20:13:13.608Z,16.73
2022-07-27T20:15:48.435Z,15.20
2022-07-27T20:18:20.268Z,16.85
2022-07-27T20:20:49.519Z,15.93
2022-07-27T20:23:18.717Z,15.45
2022-07-27T20:25:48.111Z,16.20
2022-07-27T20:28:17.340Z,15.27
2022-07-27T20:30:46.711Z,16.10
2022-07-27T20:33:22.375Z,16.15
2022-07-27T20:35:53.682Z,15.50
2022-07-27T20:38:22.918Z,16.15
2022-07-27T20:40:52.317Z,15.32
2022-07-27T20:43:21.654Z,15.82
2022-07-27T20:45:50.882Z,14.88
2022-07-27T20:48:20.132Z,15.48
2022-07-27T20:50:49.268Z,15.70
2022-07-27T20:53:22.734Z,15.50
2022-07-27T20:55:51.941Z,14.82
2022-07-27T20:58:21.117Z,15.80
2022-07-27T21:00:50.813Z,15.52
2022-07-27T21:03:21.530Z,16.73
2022-07-27T21:05:50.756Z,16.10
2022-07-27T21:08:19.951Z,14.65
2022-07-27T21:10:51.337Z,14.30
2022-07-27T21:13:20.557Z,11.05
2022-07-27T21:15:49.746Z,11.07
2022-07-27T21:18:19.044Z,12.52
2022-07-27T21:20:48.147Z,13.85
2022-07-27T21:23:30.580Z,14.93
2022-07-27T21:26:04.079Z,15.10
2022-07-27T21:28:33.612Z,15.32
2022-07-27T21:31:02.892Z,14.48
2022-07-27T21:33:37.569Z,15.38
2022-07-27T21:36:09.478Z,16.60
2022-07-27T21:38:38.637Z,15.95
2022-07-27T21:41:09.975Z,14.52
2022-07-27T21:43:39.180Z,15.60
2022-07-27T21:46:08.396Z,16.45
2022-07-27T21:48:37.727Z,15.65
2022-07-27T21:51:06.986Z,16.00
2022-07-27T21:53:36.509Z,15.45
2022-07-27T21:56:06.447Z,15.73
2022-07-27T21:58:37.686Z,17.38
2022-07-27T22:01:08.399Z,16.73
2022-07-27T22:03:38.448Z,17.48
2022-07-27T22:06:09.466Z,16.70
2022-07-27T22:08:38.608Z,17.63
2022-07-27T22:11:08.158Z,17.88
2022-07-27T22:13:39.271Z,17.13
2022-07-27T22:16:12.057Z,17.42
2022-07-27T22:18:41.424Z,18.60
2022-07-27T22:21:11.034Z,18.52
2022-07-27T22:23:40.704Z,18.85
2022-07-27T22:26:09.993Z,18.02
2022-07-27T22:28:41.159Z,18.70
2022-07-27T22:31:22.230Z,19.15
2022-07-27T22:33:52.474Z,17.77
2022-07-27T22:36:21.694Z,18.60
2022-07-27T22:38:50.942Z,17.77
2022-07-27T22:41:20.076Z,18.73
2022-07-27T22:43:51.448Z,20.35
2022-07-27T22:46:25.452Z,18.17
2022-07-27T22:48:55.160Z,18.02
2022-07-27T22:51:24.441Z,19.85
2022-07-27T22:53:54.024Z,19.55
2022-07-27T22:56:23.437Z,19.23
2022-07-27T22:58:54.882Z,19.33
2022-07-27T23:04:13.322Z,16.50
2022-07-27T23:06:42.736Z,20.65
2022-07-27T23:11:56.317Z,21.88
2022-07-27T23:14:28.897Z,21.52
2022-07-27T23:17:00.177Z,21.05
2022-07-27T23:19:29.972Z,23.15
2022-07-27T23:21:59.292Z,21.20
2022-07-27T23:24:31.655Z,21.27
2022-07-27T23:27:00.829Z,21.02
2022-07-27T23:29:31.989Z,21.17
2022-07-27T23:32:03.205Z,20.40
2022-07-27T23:39:45.822Z,19.38
2022-07-27T23:42:14.951Z,18.52
2022-07-27T23:44:46.087Z,16.92
2022-07-27T23:49:59.334Z,15.90
2022-07-27T23:52:28.445Z,15.95
2022-07-27T23:54:57.727Z,15.85
2022-07-27T23:57:27.076Z,16.55
2022-07-27T23:59:58.345Z,16.13
